Time;durP1;ratioP1;P1;durP2;ratioP2;P2;SDS_P1;SDS_P2;PMS_P1;PMS_P2;Temp;Humidity;BMP_temperature;BMP_pressure;BME280_temperature;BME280_humidity;BME280_pressure;Samples;Min_cycle;Max_cycle;Signal;HPM_P1;HPM_P2
2023/12/23 00:00:13;;;;;;;1.73;1.03;;;;;;;12.06;57.37;96864.84;5031100;28;20192;-74
2023/12/23 00:02:38;;;;;;;2.90;1.13;;;;;;;12.14;57.88;96867.44;5037366;28;20730;-74
2023/12/23 00:05:04;;;;;;;4.73;1.27;;;;;;;11.95;58.77;96868.63;5034246;28;20632;-73
2023/12/23 00:07:29;;;;;;;3.63;1.17;;;;;;;11.86;58.85;96885.41;5039705;28;20219;-74
2023/12/23 00:09:55;;;;;;;2.07;1.30;;;;;;;12.05;58.46;96899.97;5031438;28;20209;-72
2023/12/23 00:12:20;;;;;;;2.07;1.10;;;;;;;12.05;58.44;96888.66;5042117;28;20627;-72
2023/12/23 00:14:46;;;;;;;3.50;1.37;;;;;;;12.05;58.64;96897.34;5031893;28;20192;-72
2023/12/23 00:17:11;;;;;;;3.67;1.17;;;;;;;12.02;58.84;96904.75;5038912;28;20198;-73
2023/12/23 00:19:36;;;;;;;2.83;1.10;;;;;;;12.04;58.62;96929.03;5039849;28;20676;-72
2023/12/23 00:22:02;;;;;;;4.33;1.50;;;;;;;11.93;58.85;96912.59;5040944;28;20227;-72
2023/12/23 00:24:29;;;;;;;3.33;1.40;;;;;;;11.91;58.81;96908.53;5036755;28;20183;-73
2023/12/23 00:26:57;;;;;;;3.03;1.33;;;;;;;11.95;59.13;96915.09;5042678;28;20188;-72
2023/12/23 00:29:24;;;;;;;3.80;1.10;;;;;;;12.00;58.60;96901.47;5041629;28;20450;-73
2023/12/23 00:31:49;;;;;;;4.17;1.50;;;;;;;11.84;58.40;96909.19;5041296;28;20907;-74
2023/12/23 00:34:15;;;;;;;2.70;1.33;;;;;;;11.90;58.52;96917.38;5039937;28;20438;-74
2023/12/23 00:36:40;;;;;;;5.50;1.50;;;;;;;11.67;58.77;96913.66;5049701;28;20217;-72
2023/12/23 00:39:06;;;;;;;4.83;1.40;;;;;;;11.86;58.71;96921.31;5054523;28;20207;-73
2023/12/23 00:41:32;;;;;;;5.13;1.50;;;;;;;11.87;59.32;96929.06;5048792;28;20195;-72
2023/12/23 00:43:57;;;;;;;3.30;1.33;;;;;;;11.94;59.29;96944.97;5056356;28;20563;-72
2023/12/23 00:46:22;;;;;;;6.17;1.70;;;;;;;11.88;59.67;96935.94;5039718;28;20215;-74
2023/12/23 00:48:48;;;;;;;5.27;1.30;;;;;;;11.88;59.65;96950.88;5048763;28;20352;-73
2023/12/23 00:51:13;;;;;;;4.97;1.60;;;;;;;11.83;59.49;96949.59;5037041;28;20267;-72
2023/12/23 00:53:39;;;;;;;3.30;1.60;;;;;;;11.77;59.64;96950.22;5033777;28;20682;-74
2023/12/23 00:56:06;;;;;;;5.80;1.40;;;;;;;11.83;59.99;96938.25;5032179;28;20555;-71
2023/12/23 00:58:32;;;;;;;4.17;1.10;;;;;;;11.65;60.73;96959.44;5034428;28;20452;-71
2023/12/23 01:00:57;;;;;;;3.00;1.20;;;;;;;11.73;59.82;96953.34;5039135;28;20191;-73
2023/12/23 01:03:23;;;;;;;8.30;1.23;;;;;;;11.81;59.80;96958.59;5032896;28;20275;-73
2023/12/23 01:05:48;;;;;;;5.80;1.30;;;;;;;11.63;60.17;96956.16;5046720;28;20190;-70
2023/12/23 01:08:14;;;;;;;4.57;1.20;;;;;;;11.67;60.07;96960.91;5042705;28;20271;-72
2023/12/23 01:10:39;;;;;;;1.63;0.90;;;;;;;11.74;60.05;96965.50;5039471;28;20184;-72
2023/12/23 01:13:05;;;;;;;2.30;1.10;;;;;;;11.67;60.26;96960.09;5033626;28;20246;-71
2023/12/23 01:15:30;;;;;;;10.07;1.23;;;;;;;11.72;60.03;96949.88;5039804;28;20195;-73
2023/12/23 01:17:55;;;;;;;2.60;1.30;;;;;;;11.70;60.21;96969.44;5039516;28;20204;-74
2023/12/23 01:20:21;;;;;;;1.77;1.03;;;;;;;11.75;59.49;96973.19;5037231;28;20194;-74
2023/12/23 01:22:47;;;;;;;1.53;1.07;;;;;;;11.69;59.90;96984.38;5031471;28;20215;-72
2023/12/23 01:25:12;;;;;;;3.63;1.30;;;;;;;11.74;59.77;96992.56;5035939;28;20767;-71
2023/12/23 01:27:38;;;;;;;1.83;0.70;;;;;;;11.55;59.91;96998.97;5046344;28;20211;-71
2023/12/23 01:30:04;;;;;;;2.90;0.97;;;;;;;11.61;60.10;96994.84;5044407;28;20191;-73
2023/12/23 01:32:30;;;;;;;2.80;0.83;;;;;;;11.65;60.49;96999.63;5048518;28;20187;-72
2023/12/23 01:34:55;;;;;;;3.70;1.10;;;;;;;11.64;60.50;97023.41;5037025;28;20483;-72
2023/12/23 01:37:20;;;;;;;2.90;1.30;;;;;;;11.65;61.00;97019.81;5040557;28;20192;-73
2023/12/23 01:39:46;;;;;;;1.77;1.00;;;;;;;11.62;60.99;97007.84;5042222;28;20209;-72
2023/12/23 01:42:12;;;;;;;4.50;0.80;;;;;;;11.56;61.27;97002.41;5047317;28;20332;-74
2023/12/23 01:44:37;;;;;;;2.60;1.07;;;;;;;11.52;61.54;97021.09;5042838;28;20183;-73
2023/12/23 01:47:03;;;;;;;3.97;1.10;;;;;;;11.49;62.04;97008.31;5046749;28;20237;-74
2023/12/23 01:49:29;;;;;;;4.30;1.40;;;;;;;11.51;61.54;97016.03;5047575;28;20211;-70
2023/12/23 01:51:56;;;;;;;5.40;1.40;;;;;;;11.47;61.71;97018.13;5031328;28;20214;-72
2023/12/23 01:54:21;;;;;;;4.10;1.60;;;;;;;11.40;61.67;97029.47;5035412;28;20438;-72
2023/12/23 01:56:47;;;;;;;3.30;1.37;;;;;;;11.41;61.35;97028.47;5029471;28;20418;-72
2023/12/23 01:59:13;;;;;;;4.30;1.20;;;;;;;11.44;61.11;97041.25;5040670;28;20214;-72
2023/12/23 02:01:39;;;;;;;7.60;1.60;;;;;;;11.48;61.38;97048.66;5050508;28;20187;-72
2023/12/23 02:04:05;;;;;;;7.27;1.67;;;;;;;11.55;61.33;97045.38;5028755;28;20691;-71
2023/12/23 02:06:30;;;;;;;6.53;1.90;;;;;;;11.52;61.52;97042.09;5040334;28;20492;-71
2023/12/23 02:08:56;;;;;;;8.03;1.90;;;;;;;11.51;61.63;97045.72;5036074;28;20266;-70
2023/12/23 02:11:33;;;;;;;6.20;2.10;;;;;;;11.50;61.35;97032.75;5028870;28;20195;-72
2023/12/23 02:14:05;;;;;;;2.33;1.40;;;;;;;11.50;61.13;97033.56;5036053;28;20186;-72
2023/12/23 02:16:31;;;;;;;3.40;1.23;;;;;;;11.52;60.82;97047.34;5024298;28;20440;-71
2023/12/23 02:18:57;;;;;;;6.70;1.43;;;;;;;11.40;61.30;97037.34;5042897;28;20906;-72
2023/12/23 02:21:23;;;;;;;4.17;1.30;;;;;;;11.45;60.86;97046.38;5043055;28;20194;-71
2023/12/23 02:23:48;;;;;;;4.57;1.47;;;;;;;11.44;61.38;97038.63;5037858;28;20274;-71
2023/12/23 02:26:15;;;;;;;4.27;1.50;;;;;;;11.50;61.38;97038.00;5039266;28;20437;-70
2023/12/23 02:28:40;;;;;;;4.40;1.67;;;;;;;11.47;61.24;97039.13;5019577;28;20293;-72
2023/12/23 02:31:06;;;;;;;4.20;1.70;;;;;;;11.49;61.33;97039.78;5027452;28;20505;-73
2023/12/23 02:33:32;;;;;;;4.23;1.10;;;;;;;11.46;61.24;97034.88;5038076;28;20554;-71
2023/12/23 02:35:57;;;;;;;5.70;1.30;;;;;;;11.43;61.39;97032.59;5034664;28;20521;-71
2023/12/23 02:38:22;;;;;;;6.43;1.50;;;;;;;11.37;61.54;97034.06;5040366;28;20210;-72
2023/12/23 02:40:48;;;;;;;2.90;1.53;;;;;;;11.39;61.31;97038.31;5033947;28;20187;-72
2023/12/23 02:43:14;;;;;;;9.10;1.47;;;;;;;11.40;61.26;97051.28;5034868;28;20190;-73
2023/12/23 02:45:39;;;;;;;7.13;1.90;;;;;;;11.46;61.23;97048.00;5038155;28;21076;-73
2023/12/23 02:48:05;;;;;;;6.10;1.40;;;;;;;11.43;61.00;97050.94;5027296;28;20938;-71
2023/12/23 02:50:31;;;;;;;3.23;1.00;;;;;;;11.50;61.38;97035.38;5034721;28;20286;-71
2023/12/23 02:52:59;;;;;;;2.43;1.10;;;;;;;11.44;61.51;97039.47;5037032;28;20453;-71
2023/12/23 02:55:24;;;;;;;2.80;0.90;;;;;;;11.33;61.41;97058.16;5037252;28;20306;-74
2023/12/23 02:57:50;;;;;;;3.50;1.10;;;;;;;11.39;61.10;97056.69;5028496;28;20481;-71
2023/12/23 03:00:16;;;;;;;2.20;0.90;;;;;;;11.47;60.69;97064.56;5029665;28;20183;-72
2023/12/23 03:02:41;;;;;;;7.00;1.07;;;;;;;11.38;61.02;97068.97;5041171;28;21250;-71
2023/12/23 03:05:07;;;;;;;1.70;0.80;;;;;;;11.40;61.04;97071.44;5039698;28;20183;-72
2023/12/23 03:07:32;;;;;;;5.10;1.47;;;;;;;11.36;60.65;97087.50;5051873;28;20219;-72
2023/12/23 03:09:58;;;;;;;3.20;1.30;;;;;;;11.41;60.34;97073.91;5049260;28;20254;-73
2023/12/23 03:12:23;;;;;;;3.77;1.23;;;;;;;11.37;60.31;97059.44;5025807;28;20188;-75
2023/12/23 03:14:48;;;;;;;9.50;1.37;;;;;;;11.36;60.24;97061.28;5041902;28;20213;-72
2023/12/23 03:17:14;;;;;;;7.23;1.30;;;;;;;11.28;59.87;97065.66;5038732;28;20656;-73
2023/12/23 03:19:42;;;;;;;2.47;1.40;;;;;;;11.42;59.56;97067.69;5028111;28;20640;-72
2023/12/23 03:22:08;;;;;;;2.40;1.33;;;;;;;11.34;59.67;97063.22;5032848;28;20606;-73
2023/12/23 03:24:33;;;;;;;4.27;1.50;;;;;;;11.32;59.70;97056.50;5038938;28;20576;-73
2023/12/23 03:26:59;;;;;;;5.00;1.63;;;;;;;11.39;59.65;97067.19;5030014;28;20191;-70
2023/12/23 03:29:24;;;;;;;3.50;1.53;;;;;;;11.48;59.48;97061.75;5030570;28;20210;-74
2023/12/23 03:31:50;;;;;;;2.13;1.10;;;;;;;11.34;59.09;97071.09;5025587;28;20605;-71
2023/12/23 03:34:15;;;;;;;1.90;1.30;;;;;;;11.40;59.05;97063.59;5034355;28;20195;-71
2023/12/23 03:36:40;;;;;;;4.50;1.40;;;;;;;11.42;59.21;97059.81;5030768;28;20314;-70
2023/12/23 03:39:06;;;;;;;2.53;1.20;;;;;;;11.40;59.18;97047.84;5032590;28;20297;-73
2023/12/23 03:41:31;;;;;;;5.07;1.37;;;;;;;11.39;58.78;97057.50;5035652;28;20206;-72
2023/12/23 03:43:57;;;;;;;4.27;1.20;;;;;;;11.40;58.88;97053.91;5025933;28;20275;-72
2023/12/23 03:46:22;;;;;;;2.80;1.13;;;;;;;11.36;58.96;97068.31;5041626;28;20210;-71
2023/12/23 03:48:48;;;;;;;3.10;1.27;;;;;;;11.28;58.96;97063.06;5024827;28;20740;-73
2023/12/23 03:51:14;;;;;;;10.00;2.00;;;;;;;11.38;58.81;97061.09;5019360;28;20604;-71
2023/12/23 03:53:41;;;;;;;4.40;2.20;;;;;;;11.45;58.72;97061.28;5028704;28;20442;-72
2023/12/23 03:56:07;;;;;;;3.00;1.50;;;;;;;11.34;58.62;97078.16;5033106;28;20431;-72
2023/12/23 03:58:32;;;;;;;3.53;1.10;;;;;;;11.41;58.66;97058.16;5029627;28;20998;-72
2023/12/23 04:00:57;;;;;;;3.73;1.03;;;;;;;11.49;58.36;97062.59;5027469;28;20616;-72
2023/12/23 04:03:23;;;;;;;3.90;1.10;;;;;;;11.51;58.56;97050.94;5032909;28;20657;-71
2023/12/23 04:05:48;;;;;;;1.30;1.07;;;;;;;11.51;58.11;97045.72;5024836;28;20218;-72
2023/12/23 04:08:14;;;;;;;3.73;1.03;;;;;;;11.52;58.59;97049.16;5027850;28;20238;-71
2023/12/23 04:10:39;;;;;;;1.77;1.00;;;;;;;11.49;58.14;97031.91;5042856;28;20262;-73
2023/12/23 04:13:05;;;;;;;3.70;1.33;;;;;;;11.52;58.12;97033.41;5024814;28;20662;-71
2023/12/23 04:15:30;;;;;;;2.60;1.50;;;;;;;11.48;58.11;97024.22;5026530;28;20653;-71
2023/12/23 04:17:55;;;;;;;3.50;1.40;;;;;;;11.50;58.03;97028.31;5034418;28;20197;-70
2023/12/23 04:20:21;;;;;;;6.10;1.70;;;;;;;11.52;58.01;97033.41;5025678;28;20192;-72
2023/12/23 04:22:47;;;;;;;2.43;1.20;;;;;;;11.43;57.72;97029.97;5042581;28;20192;-73
2023/12/23 04:25:13;;;;;;;1.70;0.90;;;;;;;11.50;57.78;97030.94;5042248;28;20195;-72
2023/12/23 04:27:39;;;;;;;3.20;1.23;;;;;;;11.46;57.79;97023.56;5036217;28;20495;-70
2023/12/23 04:30:05;;;;;;;4.97;1.37;;;;;;;11.43;57.45;97027.34;5035376;28;20464;-72
2023/12/23 04:32:30;;;;;;;1.43;1.07;;;;;;;11.47;57.27;97012.88;5036473;28;20219;-74
2023/12/23 04:34:56;;;;;;;2.40;1.10;;;;;;;11.44;57.05;97007.97;5029486;28;20442;-70
2023/12/23 04:37:21;;;;;;;3.77;1.37;;;;;;;11.44;57.06;97005.38;5030380;28;20180;-72
2023/12/23 04:39:47;;;;;;;2.03;1.13;;;;;;;11.44;56.92;96997.50;5006092;28;20199;-72
2023/12/23 04:42:12;;;;;;;2.20;1.20;;;;;;;11.43;56.83;97011.59;5011707;28;20287;-72
2023/12/23 04:44:38;;;;;;;1.67;1.07;;;;;;;11.26;56.58;96996.78;4983832;28;20630;-71
2023/12/23 04:47:04;;;;;;;2.17;1.10;;;;;;;11.40;56.58;97008.47;5036544;28;20563;-71
2023/12/23 04:49:29;;;;;;;3.20;1.00;;;;;;;11.42;56.45;96994.22;5037218;28;20204;-72
2023/12/23 04:51:54;;;;;;;2.53;1.17;;;;;;;11.40;55.78;96979.63;5034989;28;20271;-72
2023/12/23 04:54:20;;;;;;;2.37;0.90;;;;;;;11.29;55.71;96984.16;5040461;28;20179;-71
2023/12/23 04:56:45;;;;;;;3.60;1.13;;;;;;;11.26;55.34;96981.91;5043212;28;20207;-72
2023/12/23 04:59:11;;;;;;;3.37;0.93;;;;;;;11.44;55.02;96992.25;5037880;28;20207;-71
2023/12/23 05:01:36;;;;;;;3.50;0.93;;;;;;;11.34;54.87;96984.53;5028160;28;20712;-71
2023/12/23 05:04:02;;;;;;;5.70;1.10;;;;;;;11.34;54.88;96975.84;5038088;28;20184;-73
2023/12/23 05:06:27;;;;;;;1.97;0.80;;;;;;;11.33;54.79;97006.47;5030561;28;20192;-72
2023/12/23 05:08:53;;;;;;;3.90;0.97;;;;;;;11.42;54.62;96994.22;5035940;28;20302;-71
2023/12/23 05:11:18;;;;;;;1.53;0.90;;;;;;;11.53;54.23;96991.25;5034202;28;20617;-71
2023/12/23 05:13:43;;;;;;;3.90;0.80;;;;;;;11.37;54.58;96993.84;5030688;28;20219;-73
2023/12/23 05:16:09;;;;;;;2.73;0.93;;;;;;;11.29;54.42;96993.84;5037126;28;20188;-73
2023/12/23 05:18:34;;;;;;;2.27;1.10;;;;;;;11.42;54.46;96988.13;5031179;28;20222;-71
2023/12/23 05:21:00;;;;;;;1.20;0.70;;;;;;;11.47;54.63;96991.09;5028786;28;20187;-71
2023/12/23 05:23:25;;;;;;;1.73;0.80;;;;;;;11.47;54.63;96970.91;5038583;28;20180;-72
2023/12/23 05:25:53;;;;;;;2.27;0.73;;;;;;;11.42;54.84;96977.63;5030339;28;20271;-71
2023/12/23 05:28:18;;;;;;;2.57;0.90;;;;;;;11.39;54.74;96963.03;5032441;28;20219;-71
2023/12/23 05:30:44;;;;;;;1.57;0.70;;;;;;;11.46;54.99;96978.94;5032769;28;20444;-71
2023/12/23 05:33:09;;;;;;;3.20;0.77;;;;;;;11.44;55.27;96973.88;5027484;28;20198;-70
2023/12/23 05:35:34;;;;;;;2.90;0.50;;;;;;;11.45;55.92;96987.81;5035366;28;20296;-70
2023/12/23 05:38:01;;;;;;;2.07;0.80;;;;;;;11.51;55.21;96995.84;5027297;28;20203;-70
2023/12/23 05:40:26;;;;;;;1.00;0.60;;;;;;;11.43;55.47;96980.09;5032705;28;20220;-72
2023/12/23 05:42:51;;;;;;;1.10;0.70;;;;;;;11.49;55.96;96994.38;5028534;28;20486;-71
2023/12/23 05:45:17;;;;;;;2.00;0.60;;;;;;;11.58;56.03;97003.88;5035088;28;20237;-71
2023/12/23 05:47:48;;;;;;;1.90;0.80;;;;;;;11.39;57.29;97005.03;5032311;28;20215;-72
2023/12/23 05:50:13;;;;;;;2.00;0.70;;;;;;;11.41;57.50;97003.06;5035108;28;20235;-71
2023/12/23 05:52:38;;;;;;;1.10;0.50;;;;;;;11.36;57.96;97006.16;5028639;28;20437;-73
2023/12/23 05:55:04;;;;;;;1.97;1.10;;;;;;;11.35;58.39;96999.28;5025899;28;20187;-71
2023/12/23 05:57:30;;;;;;;1.33;0.60;;;;;;;11.44;58.26;96999.28;5038637;28;20218;-70
2023/12/23 05:59:55;;;;;;;2.03;0.50;;;;;;;11.28;59.50;96989.59;5036159;28;20246;-72
2023/12/23 06:02:21;;;;;;;1.10;0.50;;;;;;;11.29;59.63;96978.94;5034341;28;20276;-73
2023/12/23 06:04:46;;;;;;;0.90;0.60;;;;;;;11.25;59.27;96985.50;5039040;28;20282;-72
2023/12/23 06:07:12;;;;;;;0.80;0.50;;;;;;;11.24;59.84;96983.03;5045304;28;20635;-72
2023/12/23 06:09:37;;;;;;;1.00;0.50;;;;;;;11.31;59.40;96976.97;5040724;28;20295;-71
2023/12/23 06:12:03;;;;;;;0.90;0.50;;;;;;;11.32;59.65;96967.31;5030778;28;20520;-71
2023/12/23 06:14:29;;;;;;;0.80;0.50;;;;;;;11.17;59.90;96978.44;5037723;28;20254;-71
2023/12/23 06:16:54;;;;;;;1.93;0.80;;;;;;;11.06;60.80;96960.38;5026883;28;20282;-71
2023/12/23 06:19:19;;;;;;;0.83;0.50;;;;;;;11.14;60.34;96975.31;5032411;28;20202;-73
2023/12/23 06:21:48;;;;;;;2.50;0.60;;;;;;;11.06;60.48;96966.44;5029092;28;20275;-70
2023/12/23 06:24:13;;;;;;;1.43;0.60;;;;;;;10.71;61.36;96964.88;5035879;28;20187;-71
2023/12/23 06:26:39;;;;;;;0.80;0.60;;;;;;;10.85;60.97;96964.25;5030263;28;20423;-71
2023/12/23 06:29:04;;;;;;;1.10;0.50;;;;;;;10.86;61.49;96951.97;5036030;28;20211;-72
2023/12/23 06:31:30;;;;;;;1.33;0.50;;;;;;;10.93;60.84;96957.41;5027357;28;20866;-71
2023/12/23 06:33:55;;;;;;;0.90;0.60;;;;;;;11.01;60.60;96965.28;5034138;28;20198;-72
2023/12/23 06:36:21;;;;;;;1.13;0.57;;;;;;;11.00;60.51;96959.22;5036996;28;20277;-71
2023/12/23 06:38:46;;;;;;;0.80;0.60;;;;;;;10.86;60.55;96963.28;5027782;28;20218;-72
2023/12/23 06:41:12;;;;;;;0.80;0.60;;;;;;;10.90;60.82;96969.84;5031448;28;20207;-71
2023/12/23 06:43:38;;;;;;;0.73;0.50;;;;;;;10.83;60.81;96976.72;5029504;28;20198;-71
2023/12/23 06:46:03;;;;;;;0.80;0.50;;;;;;;10.87;60.87;96967.53;5036056;28;20191;-73
2023/12/23 06:48:28;;;;;;;0.97;0.60;;;;;;;10.80;61.16;96957.84;5035013;28;20253;-70
2023/12/23 06:50:54;;;;;;;1.27;0.53;;;;;;;10.93;60.72;96962.66;5026939;28;20222;-71
2023/12/23 06:53:19;;;;;;;1.17;0.57;;;;;;;11.00;60.85;96959.22;5033928;28;20272;-72
2023/12/23 06:55:45;;;;;;;1.77;0.70;;;;;;;11.05;60.49;96954.31;5032516;28;20253;-73
2023/12/23 06:58:10;;;;;;;1.47;0.67;;;;;;;11.03;60.25;96964.13;5035119;28;20204;-71
2023/12/23 07:00:36;;;;;;;0.90;0.60;;;;;;;11.06;60.38;96955.13;5033894;28;20274;-73
2023/12/23 07:03:01;;;;;;;2.07;0.90;;;;;;;10.96;60.59;96957.09;5036261;28;20224;-71
2023/12/23 07:05:27;;;;;;;1.63;0.50;;;;;;;10.95;60.85;96955.44;5034474;28;20188;-72
2023/12/23 07:07:52;;;;;;;0.97;0.53;;;;;;;11.10;60.47;96961.69;5027253;28;20203;-72
2023/12/23 07:10:17;;;;;;;1.27;0.70;;;;;;;10.98;61.19;96976.91;5038978;28;20218;-72
2023/12/23 07:12:43;;;;;;;1.07;0.50;;;;;;;10.97;61.41;96953.47;5033949;28;20224;-73
2023/12/23 07:15:09;;;;;;;0.90;0.50;;;;;;;11.00;61.18;96974.13;5034520;28;20192;-71
2023/12/23 07:17:35;;;;;;;1.30;0.70;;;;;;;10.84;61.60;96965.22;5039185;28;20460;-71
2023/12/23 07:20:00;;;;;;;1.87;1.03;;;;;;;11.01;61.33;96970.53;5040119;28;20286;-72
2023/12/23 07:22:28;;;;;;;0.90;0.70;;;;;;;10.95;61.30;96981.66;5037188;28;20220;-70
2023/12/23 07:24:53;;;;;;;1.67;0.60;;;;;;;10.82;61.36;96982.94;5041727;28;20195;-71
2023/12/23 07:27:19;;;;;;;0.97;0.50;;;;;;;10.86;61.34;96979.00;5028070;28;20426;-71
2023/12/23 07:29:44;;;;;;;1.30;0.70;;;;;;;10.72;61.95;96993.56;5036427;28;20234;-71
2023/12/23 07:32:10;;;;;;;1.13;0.60;;;;;;;10.93;61.21;96978.38;5029468;28;20264;-72
2023/12/23 07:34:35;;;;;;;1.20;0.60;;;;;;;10.81;61.15;96989.16;5039773;28;20187;-72
2023/12/23 07:37:01;;;;;;;0.80;0.60;;;;;;;10.87;61.00;96995.56;5030909;28;20197;-71
2023/12/23 07:39:26;;;;;;;1.40;0.63;;;;;;;10.99;60.96;96998.72;5025531;28;20751;-72
2023/12/23 07:41:57;;;;;;;0.90;0.70;;;;;;;10.89;61.35;96991.81;5042924;28;20190;-70
2023/12/23 07:44:24;;;;;;;1.97;0.70;;;;;;;10.81;61.69;96991.78;5037134;28;20202;-71
2023/12/23 07:46:49;;;;;;;1.00;0.60;;;;;;;10.88;61.38;97008.50;5027811;28;20488;-72
2023/12/23 07:49:15;;;;;;;1.20;0.70;;;;;;;10.98;61.02;97002.31;5030305;28;20458;-70
2023/12/23 07:51:40;;;;;;;2.13;0.87;;;;;;;10.92;60.86;96993.28;5038109;28;20180;-71
2023/12/23 07:54:05;;;;;;;2.53;0.90;;;;;;;10.97;60.97;97005.91;5038304;28;20198;-72
2023/12/23 07:56:31;;;;;;;1.00;0.70;;;;;;;10.84;61.33;97004.56;5032456;28;20194;-70
2023/12/23 07:58:57;;;;;;;1.10;0.70;;;;;;;10.79;61.23;97030.44;5027498;28;20203;-71
2023/12/23 08:01:23;;;;;;;0.97;0.70;;;;;;;10.94;61.04;97016.72;5048310;28;20183;-72
2023/12/23 08:03:49;;;;;;;1.43;0.80;;;;;;;11.06;60.70;97004.97;5046771;28;20433;-71
2023/12/23 08:06:16;;;;;;;1.20;0.67;;;;;;;11.03;60.81;97010.53;5042794;28;20241;-71
2023/12/23 08:08:42;;;;;;;2.23;0.73;;;;;;;11.08;60.44;97018.75;5040736;28;20309;-72
2023/12/23 08:11:08;;;;;;;0.90;0.60;;;;;;;11.01;60.97;97017.72;5036748;28;20455;-72
2023/12/23 08:13:34;;;;;;;1.73;0.70;;;;;;;10.96;60.93;97017.41;5033185;28;20434;-73
2023/12/23 08:15:59;;;;;;;1.00;0.60;;;;;;;10.95;60.97;97013.13;5032001;28;20191;-74
2023/12/23 08:18:24;;;;;;;1.10;0.80;;;;;;;11.11;60.24;97007.91;5046926;28;20830;-72
2023/12/23 08:20:50;;;;;;;0.90;0.60;;;;;;;10.96;60.54;97015.59;5040268;28;20267;-72
2023/12/23 08:23:15;;;;;;;1.80;0.63;;;;;;;10.93;60.40;96999.34;5042905;28;20192;-71
2023/12/23 08:25:41;;;;;;;0.80;0.50;;;;;;;10.97;59.77;97006.75;5027148;28;20704;-72
2023/12/23 08:28:07;;;;;;;0.80;0.60;;;;;;;11.08;59.53;97013.50;5042884;28;20301;-73
2023/12/23 08:30:32;;;;;;;1.00;0.60;;;;;;;11.25;59.23;97010.91;5031504;28;20179;-73
2023/12/23 08:32:58;;;;;;;1.50;0.53;;;;;;;11.29;59.19;97013.03;5030616;28;20210;-73
2023/12/23 08:35:23;;;;;;;1.07;0.70;;;;;;;11.27;58.88;97003.69;5034825;28;20199;-71
2023/12/23 08:37:48;;;;;;;0.70;0.50;;;;;;;11.25;59.15;97008.28;5039056;28;20208;-71
2023/12/23 08:40:14;;;;;;;0.80;0.60;;;;;;;11.31;59.05;96995.34;5037192;28;20198;-70
2023/12/23 08:42:40;;;;;;;0.90;0.60;;;;;;;11.34;58.81;97002.88;5042427;28;20270;-72
2023/12/23 08:45:06;;;;;;;1.00;0.57;;;;;;;11.34;58.57;97017.81;5037834;28;20237;-71
2023/12/23 08:47:31;;;;;;;1.20;0.77;;;;;;;11.23;58.66;97021.56;5043288;28;20183;-72
2023/12/23 08:49:57;;;;;;;1.30;0.60;;;;;;;11.30;58.63;97030.41;5034160;28;20317;-71
2023/12/23 08:52:22;;;;;;;0.90;0.60;;;;;;;11.34;58.30;97033.56;5045943;28;20270;-71
2023/12/23 08:54:48;;;;;;;0.97;0.67;;;;;;;11.29;57.83;97026.16;5038377;28;20270;-73
2023/12/23 08:57:13;;;;;;;1.40;0.90;;;;;;;11.18;58.02;97032.53;5040233;28;20219;-71
2023/12/23 08:59:38;;;;;;;1.00;0.70;;;;;;;11.21;58.08;97019.06;5042511;28;20672;-72
2023/12/23 09:02:04;;;;;;;1.40;1.00;;;;;;;11.36;57.87;97018.44;5037434;28;20651;-71
2023/12/23 09:04:30;;;;;;;0.90;0.60;;;;;;;11.34;57.89;97021.25;5039810;28;20219;-72
2023/12/23 09:06:56;;;;;;;1.00;0.90;;;;;;;11.34;57.80;97007.31;5032097;28;20477;-71
2023/12/23 09:09:21;;;;;;;2.47;0.90;;;;;;;11.44;57.51;97012.41;5039007;28;20219;-71
2023/12/23 09:11:47;;;;;;;1.37;0.60;;;;;;;11.50;57.32;97009.94;5033482;28;20423;-72
2023/12/23 09:14:14;;;;;;;1.30;0.70;;;;;;;11.48;57.19;97014.53;5037996;28;20275;-70
2023/12/23 09:16:40;;;;;;;2.13;0.60;;;;;;;11.47;56.96;97022.56;5030129;28;20188;-73
2023/12/23 09:19:05;;;;;;;1.07;0.50;;;;;;;11.32;57.47;97028.47;5037392;28;20496;-72
2023/12/23 09:21:31;;;;;;;0.70;0.50;;;;;;;11.29;57.32;97014.84;5032708;28;20736;-72
2023/12/23 09:23:56;;;;;;;1.00;0.50;;;;;;;11.41;56.70;97024.03;5039754;28;20222;-72
2023/12/23 09:26:24;;;;;;;0.90;0.60;;;;;;;11.51;56.53;97039.66;5045692;28;20184;-73
2023/12/23 09:28:50;;;;;;;1.20;0.60;;;;;;;11.40;56.21;97027.66;5041242;28;20220;-72
2023/12/23 09:31:16;;;;;;;1.90;0.60;;;;;;;11.61;55.90;97026.34;5029807;28;20977;-73
2023/12/23 09:33:41;;;;;;;0.80;0.50;;;;;;;11.65;55.61;97030.31;5029680;28;20463;-73
2023/12/23 09:36:07;;;;;;;1.00;0.60;;;;;;;11.69;55.81;97036.88;5029742;28;20195;-74
2023/12/23 09:38:32;;;;;;;0.80;0.60;;;;;;;11.55;55.35;97050.63;5040846;28;20203;-72
2023/12/23 09:40:58;;;;;;;1.00;0.70;;;;;;;11.74;55.50;97058.19;5032707;28;20227;-72
2023/12/23 09:43:23;;;;;;;0.80;0.60;;;;;;;11.82;55.53;97057.38;5028698;28;20187;-72
2023/12/23 09:45:50;;;;;;;2.60;0.60;;;;;;;11.69;55.21;97052.63;5035724;28;20270;-73
2023/12/23 09:48:16;;;;;;;0.70;0.40;;;;;;;11.70;55.16;97048.19;5042689;28;20223;-73
2023/12/23 09:50:41;;;;;;;0.80;0.50;;;;;;;11.55;55.25;97048.00;5043084;28;20458;-72
2023/12/23 09:53:09;;;;;;;0.70;0.50;;;;;;;11.68;54.96;97071.97;5036179;28;20430;-72
2023/12/23 09:55:36;;;;;;;0.93;0.70;;;;;;;11.82;54.95;97052.97;5026369;28;20575;-72
2023/12/23 09:58:01;;;;;;;1.00;0.50;;;;;;;11.77;55.26;97059.69;5033447;28;20550;-71
2023/12/23 10:00:27;;;;;;;1.03;0.60;;;;;;;11.78;54.93;97051.63;5040575;28;20517;-73
2023/12/23 10:02:52;;;;;;;0.80;0.60;;;;;;;11.84;55.12;97050.16;5030453;28;20649;-72
2023/12/23 10:05:18;;;;;;;1.27;0.60;;;;;;;11.63;55.60;97048.00;5033371;28;20211;-72
2023/12/23 10:07:43;;;;;;;0.90;0.63;;;;;;;11.55;55.51;97053.25;5042538;28;20221;-72
2023/12/23 10:10:10;;;;;;;1.00;0.70;;;;;;;11.74;55.28;97034.56;5040153;28;20183;-73
2023/12/23 10:12:36;;;;;;;0.80;0.60;;;;;;;11.64;55.12;97050.50;5038840;28;20191;-71
2023/12/23 10:15:01;;;;;;;1.00;0.60;;;;;;;11.57;55.04;97038.19;5045895;28;20441;-69
2023/12/23 10:17:27;;;;;;;1.00;0.73;;;;;;;11.80;55.04;97057.56;5044516;28;20574;-73
2023/12/23 10:19:55;;;;;;;0.80;0.50;;;;;;;11.66;55.27;97045.06;5042105;28;20217;-72
2023/12/23 10:22:20;;;;;;;0.80;0.60;;;;;;;11.77;55.14;97041.31;5034227;28;20179;-72
2023/12/23 10:24:46;;;;;;;0.90;0.63;;;;;;;11.85;55.08;97033.44;5032680;28;20426;-72
2023/12/23 10:27:14;;;;;;;0.80;0.50;;;;;;;11.59;55.40;97054.59;5032090;28;20198;-73
2023/12/23 10:29:41;;;;;;;1.10;0.60;;;;;;;11.74;55.35;97039.81;5029180;28;20810;-73
2023/12/23 10:32:08;;;;;;;0.83;0.60;;;;;;;11.80;55.39;97049.69;5044905;28;20434;-73
2023/12/23 10:34:56;;;;;;;0.90;0.70;;;;;;;11.81;55.10;97043.44;5032659;28;20426;-72
2023/12/23 10:37:24;;;;;;;1.00;0.70;;;;;;;11.76;55.06;97043.09;5034499;28;20997;-72
2023/12/23 10:39:54;;;;;;;0.70;0.50;;;;;;;11.76;55.46;97035.22;5028788;28;20462;-72
2023/12/23 10:42:23;;;;;;;0.90;0.60;;;;;;;11.72;55.56;97030.47;5032898;28;21097;-71
2023/12/23 10:44:48;;;;;;;1.10;0.80;;;;;;;11.79;56.29;97039.31;5036116;28;20442;-71
2023/12/23 10:47:15;;;;;;;0.80;0.60;;;;;;;11.75;56.58;97036.22;5033322;28;20514;-72
2023/12/23 10:49:43;;;;;;;1.40;0.57;;;;;;;11.77;56.21;97046.56;5034168;28;20693;-72
2023/12/23 10:52:11;;;;;;;1.13;0.70;;;;;;;11.76;56.64;97029.97;5040277;28;20448;-73
2023/12/23 10:54:36;;;;;;;1.40;0.93;;;;;;;11.83;56.43;97030.97;5037723;28;20448;-73
2023/12/23 10:57:02;;;;;;;0.90;0.67;;;;;;;11.74;56.58;97018.81;5035915;28;20516;-72
2023/12/23 10:59:28;;;;;;;0.90;0.70;;;;;;;11.80;56.16;97028.66;5029348;28;20203;-72
2023/12/23 11:01:56;;;;;;;0.80;0.50;;;;;;;11.80;56.30;97020.78;5031453;28;20190;-72
2023/12/23 11:04:23;;;;;;;0.80;0.50;;;;;;;11.80;56.33;97031.28;5040331;28;20195;-73
2023/12/23 11:06:52;;;;;;;0.80;0.50;;;;;;;11.86;56.22;97034.22;5028244;28;20575;-74
2023/12/23 11:09:19;;;;;;;0.80;0.50;;;;;;;11.89;55.77;97047.03;5036271;28;20885;-73
2023/12/23 11:11:44;;;;;;;1.20;0.50;;;;;;;11.74;55.96;97039.81;5038053;28;20419;-72
2023/12/23 11:14:10;;;;;;;0.80;0.50;;;;;;;11.55;56.18;97040.94;5027217;28;20426;-69
2023/12/23 11:16:38;;;;;;;0.77;0.50;;;;;;;11.71;55.87;97040.16;5023763;28;20192;-71
2023/12/23 11:19:04;;;;;;;0.93;0.60;;;;;;;11.66;55.94;97043.25;5035380;28;20268;-72
2023/12/23 11:21:30;;;;;;;0.80;0.50;;;;;;;11.84;55.65;97040.47;5042337;28;21010;-73
2023/12/23 11:23:57;;;;;;;1.30;0.60;;;;;;;11.89;55.77;97050.50;5039682;28;20426;-72
2023/12/23 11:26:35;;;;;;;2.73;0.53;;;;;;;11.92;55.44;97028.34;5036266;28;20647;-74